createdAt,value
2023-05-04T00:00:30.863Z,7.20
2023-05-04T00:02:58.989Z,7.10
2023-05-04T00:05:27.431Z,7.20
2023-05-04T00:07:55.536Z,7.20
2023-05-04T00:10:23.859Z,7.30
2023-05-04T00:12:52.077Z,7.30
2023-05-04T00:15:20.196Z,7.20
2023-05-04T00:17:48.304Z,7.10
2023-05-04T00:20:16.438Z,7.10
2023-05-04T00:22:44.429Z,7.20
2023-05-04T00:25:12.952Z,7.30
2023-05-04T00:27:41.010Z,7.30
2023-05-04T00:30:10.002Z,7.20
2023-05-04T00:32:38.137Z,7.00
2023-05-04T00:35:06.840Z,6.90
2023-05-04T00:37:34.886Z,7.00
2023-05-04T00:40:03.365Z,6.80
2023-05-04T00:42:31.715Z,6.70
2023-05-04T00:44:59.729Z,6.70
2023-05-04T00:47:28.040Z,6.60
2023-05-04T00:49:57.288Z,6.60
2023-05-04T00:52:25.744Z,6.60
2023-05-04T00:54:54.288Z,6.60
2023-05-04T00:57:22.455Z,6.50
2023-05-04T00:59:50.470Z,6.40
2023-05-04T01:02:18.597Z,6.40
2023-05-04T01:04:46.767Z,6.40
2023-05-04T01:07:30.938Z,6.40
2023-05-04T01:10:03.429Z,6.40
2023-05-04T01:12:40.355Z,6.50
2023-05-04T01:15:10.576Z,6.40
2023-05-04T01:17:38.778Z,6.30
2023-05-04T01:20:07.557Z,6.30
2023-05-04T01:22:37.924Z,6.40
2023-05-04T01:25:06.593Z,6.40
2023-05-04T01:27:53.485Z,6.40
2023-05-04T01:30:31.372Z,6.30
2023-05-04T01:32:59.806Z,6.30
2023-05-04T01:35:28.160Z,6.30
2023-05-04T01:38:01.100Z,6.20
2023-05-04T01:40:36.803Z,6.10
2023-05-04T01:43:04.853Z,6.10
2023-05-04T01:45:33.291Z,6.00
2023-05-04T01:48:01.378Z,6.00
2023-05-04T01:50:29.487Z,6.00
2023-05-04T01:52:57.609Z,5.90
2023-05-04T01:55:25.651Z,5.90
2023-05-04T01:57:53.687Z,5.90
2023-05-04T02:00:21.738Z,6.00
2023-05-04T02:02:50.106Z,6.10
2023-05-04T02:05:20.450Z,6.10
2023-05-04T02:07:50.145Z,6.10
2023-05-04T02:10:18.180Z,5.90
2023-05-04T02:12:46.353Z,5.90
2023-05-04T02:15:14.532Z,6.00
2023-05-04T02:17:42.747Z,6.00
2023-05-04T02:20:11.517Z,6.10
2023-05-04T02:22:39.736Z,6.20
2023-05-04T02:25:08.816Z,6.00
2023-05-04T02:27:38.153Z,5.90
2023-05-04T02:30:07.272Z,5.80
2023-05-04T02:32:35.546Z,5.80
2023-05-04T02:35:03.910Z,5.80
2023-05-04T02:37:31.950Z,5.80
2023-05-04T02:40:00.178Z,5.70
2023-05-04T02:42:28.277Z,5.70
2023-05-04T02:44:57.804Z,5.60
2023-05-04T02:47:25.874Z,5.60
2023-05-04T02:49:53.948Z,5.60
2023-05-04T02:52:21.938Z,5.50
2023-05-04T02:54:52.412Z,5.50
2023-05-04T02:57:21.326Z,5.40
2023-05-04T02:59:49.482Z,5.40
2023-05-04T03:02:17.608Z,5.40
2023-05-04T03:04:45.778Z,5.40
2023-05-04T03:07:14.202Z,5.50
2023-05-04T03:09:42.314Z,5.40
2023-05-04T03:12:10.385Z,5.30
2023-05-04T03:14:38.428Z,5.30
2023-05-04T03:17:06.494Z,5.20
2023-05-04T03:19:34.554Z,5.20
2023-05-04T03:22:04.312Z,5.20
2023-05-04T03:24:32.455Z,5.20
2023-05-04T03:27:07.970Z,5.20
2023-05-04T03:29:38.388Z,5.10
2023-05-04T03:32:07.982Z,5.10
2023-05-04T03:34:37.069Z,5.10
2023-05-04T03:37:06.970Z,5.10
2023-05-04T03:39:35.136Z,5.10
2023-05-04T03:42:04.019Z,5.20
2023-05-04T03:44:32.076Z,5.20
2023-05-04T03:47:00.205Z,5.20
2023-05-04T03:49:28.507Z,5.20
2023-05-04T03:51:56.676Z,5.20
2023-05-04T03:54:24.734Z,5.30
2023-05-04T03:56:52.865Z,5.30
2023-05-04T03:59:20.989Z,5.30
2023-05-04T04:01:49.739Z,5.30
2023-05-04T04:04:18.106Z,5.30
2023-05-04T04:06:46.249Z,5.30
2023-05-04T04:09:14.694Z,5.20
2023-05-04T04:11:42.778Z,5.20
2023-05-04T04:14:10.870Z,5.30
2023-05-04T04:16:39.017Z,5.30
2023-05-04T04:19:08.449Z,5.30
2023-05-04T04:21:37.051Z,5.30
2023-05-04T04:24:05.517Z,5.40
2023-05-04T04:26:34.896Z,5.50
2023-05-04T04:29:03.072Z,5.60
2023-05-04T04:31:31.847Z,5.70
2023-05-04T04:34:00.563Z,5.70
2023-05-04T04:36:28.615Z,5.70
2023-05-04T04:38:56.976Z,5.80
2023-05-04T04:41:26.249Z,5.90
2023-05-04T04:43:54.409Z,5.90
2023-05-04T04:46:22.841Z,6.00
2023-05-04T04:48:51.466Z,6.10
2023-05-04T04:51:19.563Z,6.20
2023-05-04T04:53:47.550Z,6.20
2023-05-04T04:56:15.602Z,6.40
2023-05-04T04:58:43.870Z,6.50
2023-05-04T05:01:11.970Z,6.60
2023-05-04T05:03:39.989Z,6.80
2023-05-04T05:06:08.017Z,7.00
2023-05-04T05:08:36.293Z,7.20
2023-05-04T05:11:04.694Z,7.30
2023-05-04T05:13:36.070Z,7.50
2023-05-04T05:16:04.136Z,7.60
2023-05-04T05:18:32.535Z,7.80
2023-05-04T05:21:05.482Z,8.00
2023-05-04T05:23:33.562Z,8.10
2023-05-04T05:26:03.248Z,8.30
2023-05-04T05:28:31.691Z,8.40
2023-05-04T05:30:59.709Z,8.50
2023-05-04T05:33:27.822Z,8.60
2023-05-04T05:35:55.890Z,8.70
2023-05-04T05:38:23.981Z,8.90
2023-05-04T05:40:52.448Z,9.00
2023-05-04T05:43:20.503Z,9.10
2023-05-04T05:45:48.549Z,9.20
2023-05-04T05:48:16.697Z,9.30
2023-05-04T05:50:44.713Z,9.50
2023-05-04T05:53:12.984Z,9.60
2023-05-04T05:55:40.998Z,9.70
2023-05-04T05:58:09.896Z,9.90
2023-05-04T06:00:37.885Z,10.10
2023-05-04T06:03:06.056Z,10.20
2023-05-04T06:05:35.115Z,10.30
2023-05-04T06:08:03.278Z,10.60
2023-05-04T06:10:31.276Z,10.90
2023-05-04T06:12:59.338Z,11.30
2023-05-04T06:15:27.783Z,11.70
2023-05-04T06:17:55.855Z,12.00
2023-05-04T06:20:24.173Z,12.20
2023-05-04T06:22:52.163Z,12.40
2023-05-04T06:25:20.156Z,12.50
2023-05-04T06:27:48.676Z,12.60
2023-05-04T06:32:57.964Z,12.80
2023-05-04T06:35:26.263Z,12.90
2023-05-04T06:37:54.360Z,13.00
2023-05-04T06:40:22.401Z,13.00
2023-05-04T06:42:50.479Z,13.10
2023-05-04T06:45:18.623Z,13.20
2023-05-04T06:47:47.096Z,13.20
2023-05-04T06:50:15.593Z,13.30
2023-05-04T06:52:45.173Z,13.40
2023-05-04T06:55:13.257Z,13.60
2023-05-04T06:57:41.425Z,13.60
2023-05-04T07:00:13.197Z,13.90
2023-05-04T07:02:41.405Z,14.10
2023-05-04T07:05:11.886Z,14.30
2023-05-04T07:07:39.979Z,14.50
2023-05-04T07:10:08.891Z,14.50
2023-05-04T07:12:37.024Z,14.80
2023-05-04T07:15:05.177Z,15.00
2023-05-04T07:17:33.977Z,15.20
2023-05-04T07:20:02.961Z,15.40
2023-05-04T07:22:32.474Z,15.60
2023-05-04T07:25:01.012Z,15.80
2023-05-04T07:27:29.114Z,16.10
2023-05-04T07:29:57.220Z,16.30
2023-05-04T07:32:25.415Z,16.50
2023-05-04T07:34:53.639Z,16.70
2023-05-04T07:37:21.741Z,16.80
2023-05-04T07:39:49.803Z,16.80
2023-05-04T07:42:17.931Z,16.90
2023-05-04T07:44:45.928Z,17.00
2023-05-04T07:47:14.279Z,17.30
2023-05-04T07:49:42.463Z,17.40
2023-05-04T07:52:10.457Z,17.20
2023-05-04T07:54:38.531Z,17.50
2023-05-04T07:57:06.537Z,17.90
2023-05-04T07:59:34.590Z,18.00
2023-05-04T08:02:02.897Z,18.10
2023-05-04T08:04:31.017Z,18.30
2023-05-04T08:06:59.041Z,18.60
2023-05-04T08:09:27.054Z,18.90
2023-05-04T08:11:55.065Z,18.90
2023-05-04T08:14:23.249Z,19.20
2023-05-04T08:16:51.244Z,19.30
2023-05-04T08:19:20.154Z,19.50
2023-05-04T08:21:48.180Z,19.60
2023-05-04T08:24:17.718Z,19.50
2023-05-04T08:26:55.721Z,19.20
2023-05-04T08:29:28.113Z,19.20
2023-05-04T08:31:57.485Z,19.50
2023-05-04T08:34:25.747Z,19.70
2023-05-04T08:36:54.123Z,20.00
2023-05-04T08:39:22.372Z,20.10
2023-05-04T08:41:50.351Z,20.20
2023-05-04T08:44:18.971Z,20.20
2023-05-04T08:46:53.900Z,20.10
2023-05-04T08:49:25.735Z,20.20
2023-05-04T08:51:54.001Z,20.30
2023-05-04T08:54:22.314Z,20.10
2023-05-04T08:56:52.514Z,19.90
2023-05-04T08:59:21.587Z,20.20
2023-05-04T09:01:53.248Z,20.20
2023-05-04T09:04:22.092Z,20.10
2023-05-04T09:06:50.233Z,20.10
2023-05-04T09:09:18.414Z,20.00
2023-05-04T09:11:46.578Z,20.30
2023-05-04T09:14:14.704Z,20.50
2023-05-04T09:16:42.992Z,20.70
2023-05-04T09:19:20.790Z,20.90
2023-05-04T09:21:50.592Z,20.90
2023-05-04T09:24:28.844Z,20.80
2023-05-04T09:26:56.897Z,20.80
2023-05-04T09:29:26.960Z,21.00
2023-05-04T09:31:56.749Z,21.20
2023-05-04T09:34:24.951Z,21.30
2023-05-04T09:37:07.416Z,21.40
2023-05-04T09:39:35.863Z,21.70
2023-05-04T09:42:04.046Z,21.80
2023-05-04T09:44:32.159Z,21.80
2023-05-04T09:47:00.608Z,21.80
2023-05-04T09:49:38.916Z,21.80
2023-05-04T09:52:08.158Z,21.80
2023-05-04T09:54:37.183Z,22.00
2023-05-04T09:57:11.265Z,22.00
2023-05-04T09:59:39.342Z,22.30
2023-05-04T10:02:21.246Z,22.20
2023-05-04T10:04:51.102Z,22.00
2023-05-04T10:07:19.422Z,21.90
2023-05-04T10:09:48.134Z,21.80
2023-05-04T10:12:16.167Z,22.00
2023-05-04T10:14:47.963Z,22.30
2023-05-04T10:17:31.496Z,22.40
2023-05-04T10:20:18.202Z,22.40
2023-05-04T10:23:01.600Z,22.50
2023-05-04T10:25:32.539Z,22.50
2023-05-04T10:28:01.937Z,22.60
2023-05-04T10:30:30.237Z,22.70
2023-05-04T10:32:59.385Z,22.90
2023-05-04T10:35:28.283Z,22.70
2023-05-04T10:37:57.030Z,22.50
2023-05-04T10:40:34.440Z,22.60
2023-05-04T10:43:02.627Z,22.70
2023-05-04T10:45:44.269Z,23.00
2023-05-04T10:48:12.339Z,23.20
2023-05-04T10:50:46.980Z,23.30
2023-05-04T10:53:15.834Z,23.40
2023-05-04T10:55:44.960Z,23.40
2023-05-04T10:58:20.357Z,23.50
2023-05-04T11:00:49.234Z,23.60
2023-05-04T11:03:17.518Z,23.50
2023-05-04T11:05:47.443Z,23.30
2023-05-04T11:08:19.496Z,23.60
2023-05-04T11:10:48.981Z,23.80
2023-05-04T11:13:19.815Z,23.50
2023-05-04T11:15:48.860Z,23.40
2023-05-04T11:18:26.706Z,23.30
2023-05-04T11:20:55.061Z,23.30
2023-05-04T11:23:23.932Z,23.20
2023-05-04T11:25:52.167Z,23.20
2023-05-04T11:28:20.457Z,23.00
2023-05-04T11:30:49.023Z,23.00
2023-05-04T11:33:17.517Z,23.10
2023-05-04T11:35:45.809Z,23.30
2023-05-04T11:38:22.038Z,23.20
2023-05-04T11:40:50.130Z,23.40
2023-05-04T11:43:19.145Z,23.60
2023-05-04T11:45:49.417Z,23.60
2023-05-04T11:48:18.797Z,23.70
2023-05-04T11:50:47.221Z,23.70
2023-05-04T11:53:15.378Z,23.70
2023-05-04T11:55:43.592Z,23.60
2023-05-04T11:58:12.405Z,23.60
2023-05-04T12:00:41.500Z,23.90
2023-05-04T12:03:10.333Z,24.00
2023-05-04T12:05:38.577Z,24.00
2023-05-04T12:08:08.642Z,23.90
2023-05-04T12:10:36.746Z,24.30
2023-05-04T12:13:05.141Z,24.10
2023-05-04T12:15:34.229Z,24.10
2023-05-04T12:18:03.273Z,24.00
2023-05-04T12:20:31.825Z,24.00
2023-05-04T12:23:00.126Z,24.40
2023-05-04T12:25:28.135Z,24.70
2023-05-04T12:27:56.134Z,24.40
2023-05-04T12:30:24.195Z,24.20
2023-05-04T12:32:52.215Z,24.00
2023-05-04T12:35:20.224Z,24.00
2023-05-04T12:37:48.536Z,24.30
2023-05-04T12:40:27.629Z,24.60
2023-05-04T12:42:56.544Z,24.90
2023-05-04T12:45:24.627Z,24.90
2023-05-04T12:47:52.689Z,25.10
2023-05-04T12:50:20.757Z,24.90
2023-05-04T12:52:48.909Z,24.90
2023-05-04T12:55:17.059Z,24.90
2023-05-04T12:57:46.311Z,24.80
2023-05-04T13:00:15.353Z,24.70
2023-05-04T13:02:43.613Z,24.80
2023-05-04T13:05:17.781Z,24.90
2023-05-04T13:07:48.137Z,25.00
2023-05-04T13:10:16.888Z,25.30
2023-05-04T13:12:46.201Z,25.50
2023-05-04T13:15:14.580Z,25.60
2023-05-04T13:17:45.702Z,25.30
2023-05-04T13:20:14.451Z,25.20
2023-05-04T13:22:42.536Z,25.10
2023-05-04T13:25:10.742Z,25.00
2023-05-04T13:27:40.323Z,25.20
2023-05-04T13:30:08.869Z,25.30
2023-05-04T13:32:37.587Z,25.20
2023-05-04T13:35:06.304Z,24.90
2023-05-04T13:37:35.227Z,24.80
2023-05-04T13:40:03.257Z,24.90
2023-05-04T13:42:31.341Z,24.90
2023-05-04T13:44:59.348Z,24.80
2023-05-04T13:47:27.475Z,24.90
2023-05-04T13:49:55.590Z,25.00
2023-05-04T13:52:23.671Z,24.70
2023-05-04T13:54:51.673Z,24.70
2023-05-04T13:57:19.787Z,24.70
2023-05-04T13:59:58.600Z,24.60
2023-05-04T14:02:38.774Z,24.50
2023-05-04T14:05:07.342Z,24.40
2023-05-04T14:07:36.187Z,24.40
2023-05-04T14:10:05.031Z,24.60
2023-05-04T14:12:33.141Z,24.50
2023-05-04T14:15:02.189Z,24.30
2023-05-04T14:17:30.262Z,24.30
2023-05-04T14:20:00.055Z,24.50
2023-05-04T14:22:32.000Z,24.30
2023-05-04T14:25:00.158Z,24.40
2023-05-04T14:27:28.776Z,24.70
2023-05-04T14:29:56.842Z,24.90
2023-05-04T14:32:25.633Z,24.90
2023-05-04T14:34:54.240Z,24.70
2023-05-04T14:37:22.243Z,24.50
2023-05-04T14:39:50.348Z,24.40
2023-05-04T14:42:18.419Z,24.40
2023-05-04T14:44:46.459Z,24.30
2023-05-04T14:47:14.474Z,24.30
2023-05-04T14:49:43.840Z,24.30
2023-05-04T14:52:12.309Z,24.30
2023-05-04T14:54:40.294Z,24.20
2023-05-04T14:57:10.284Z,24.40
2023-05-04T14:59:38.986Z,24.40
2023-05-04T15:02:07.892Z,24.40
2023-05-04T15:04:36.227Z,24.30
2023-05-04T15:07:05.656Z,24.30
2023-05-04T15:09:34.068Z,24.50
2023-05-04T15:12:02.120Z,24.60
2023-05-04T15:14:30.307Z,24.50
2023-05-04T15:16:58.309Z,24.40
2023-05-04T15:19:26.478Z,24.30
2023-05-04T15:21:54.527Z,24.40
2023-05-04T15:24:23.127Z,24.50
2023-05-04T15:26:51.286Z,24.40
2023-05-04T15:29:19.297Z,24.30
2023-05-04T15:31:47.477Z,24.10
2023-05-04T15:34:18.160Z,24.00
2023-05-04T15:36:46.709Z,24.00
2023-05-04T15:39:14.760Z,24.00
2023-05-04T15:41:44.051Z,23.90
2023-05-04T15:44:12.114Z,23.70
2023-05-04T15:46:40.344Z,23.50
2023-05-04T15:49:08.466Z,23.50
2023-05-04T15:51:36.641Z,23.40
2023-05-04T15:54:04.907Z,23.30
2023-05-04T15:56:32.969Z,23.20
2023-05-04T15:59:01.241Z,23.10
2023-05-04T16:01:29.468Z,23.00
2023-05-04T16:03:57.875Z,23.00
2023-05-04T16:06:26.089Z,22.70
2023-05-04T16:08:54.901Z,22.50
2023-05-04T16:11:22.982Z,22.40
2023-05-04T16:13:51.536Z,22.30
2023-05-04T16:16:28.025Z,22.30
2023-05-04T16:18:56.789Z,22.30
2023-05-04T16:21:28.077Z,22.30
2023-05-04T16:23:56.617Z,22.20
2023-05-04T16:26:24.678Z,22.10
2023-05-04T16:28:55.062Z,22.00
2023-05-04T16:31:23.163Z,22.00
2023-05-04T16:33:51.347Z,21.90
2023-05-04T16:36:19.651Z,21.90
2023-05-04T16:38:48.994Z,21.90
2023-05-04T16:41:18.839Z,21.70
2023-05-04T16:43:47.169Z,21.70
2023-05-04T16:46:15.457Z,21.70
2023-05-04T16:48:43.640Z,21.70
2023-05-04T16:51:11.885Z,21.60
2023-05-04T16:53:39.930Z,21.60
2023-05-04T16:56:08.506Z,21.50
2023-05-04T16:58:36.679Z,21.40
2023-05-04T17:01:04.743Z,21.40
2023-05-04T17:03:34.302Z,21.20
2023-05-04T17:06:02.664Z,21.10
2023-05-04T17:08:30.692Z,21.10
2023-05-04T17:11:01.802Z,21.00
2023-05-04T17:13:30.091Z,20.90
2023-05-04T17:15:58.101Z,20.90
2023-05-04T17:18:26.115Z,20.80
2023-05-04T17:20:54.115Z,20.80
2023-05-04T17:23:24.714Z,20.80
2023-05-04T17:26:02.651Z,20.80
2023-05-04T17:28:31.559Z,20.70
2023-05-04T17:30:59.700Z,20.60
2023-05-04T17:33:31.073Z,20.50
2023-05-04T17:35:59.603Z,20.40
2023-05-04T17:38:30.626Z,20.40
2023-05-04T17:41:02.112Z,20.40
2023-05-04T17:43:30.236Z,20.40
2023-05-04T17:45:58.366Z,20.30
2023-05-04T17:48:26.461Z,20.30
2023-05-04T17:51:00.291Z,20.20
2023-05-04T17:53:29.117Z,20.20
2023-05-04T17:55:59.657Z,20.10
2023-05-04T17:58:27.924Z,20.10
2023-05-04T18:00:56.159Z,20.00
2023-05-04T18:03:24.363Z,20.00
2023-05-04T18:05:52.518Z,19.90
2023-05-04T18:08:20.621Z,19.80
2023-05-04T18:10:49.837Z,19.80
2023-05-04T18:13:18.089Z,19.70
2023-05-04T18:15:46.328Z,19.60
2023-05-04T18:18:14.376Z,19.50
2023-05-04T18:20:42.347Z,19.20
2023-05-04T18:23:10.409Z,19.00
2023-05-04T18:25:38.760Z,18.80
2023-05-04T18:28:07.955Z,18.60
2023-05-04T18:30:36.025Z,18.30
2023-05-04T18:33:04.059Z,18.30
2023-05-04T18:35:32.216Z,18.20
2023-05-04T18:38:00.262Z,18.10
2023-05-04T18:40:28.285Z,18.00
2023-05-04T18:42:56.381Z,17.90
2023-05-04T18:45:24.478Z,17.90
2023-05-04T18:47:52.494Z,17.80
2023-05-04T18:50:20.779Z,17.60
2023-05-04T18:52:48.832Z,17.40
2023-05-04T18:55:16.911Z,17.30
2023-05-04T18:57:45.559Z,17.00
2023-05-04T19:00:15.189Z,16.90
2023-05-04T19:02:43.322Z,16.90
2023-05-04T19:05:14.329Z,16.90
2023-05-04T19:07:42.797Z,16.80
2023-05-04T19:10:11.116Z,16.50
2023-05-04T19:12:39.193Z,16.10
2023-05-04T19:15:07.539Z,15.90
2023-05-04T19:17:41.478Z,15.80
2023-05-04T19:20:12.575Z,15.80
2023-05-04T19:22:40.615Z,15.80
2023-05-04T19:25:09.482Z,15.70
2023-05-04T19:27:37.643Z,15.50
2023-05-04T19:30:09.175Z,15.40
2023-05-04T19:32:39.928Z,15.30
2023-05-04T19:35:08.200Z,15.20
2023-05-04T19:37:39.049Z,15.00
2023-05-04T19:40:07.699Z,14.90
2023-05-04T19:42:35.902Z,14.80
2023-05-04T19:45:06.713Z,14.60
2023-05-04T19:47:34.957Z,14.60
2023-05-04T19:50:03.116Z,14.50
2023-05-04T19:52:31.344Z,14.40
2023-05-04T19:54:59.325Z,14.30
2023-05-04T19:57:27.327Z,14.20
2023-05-04T19:59:57.007Z,14.00
2023-05-04T20:02:25.289Z,13.80
2023-05-04T20:04:53.519Z,13.70
2023-05-04T20:07:21.571Z,13.50
2023-05-04T20:09:49.691Z,13.40
2023-05-04T20:12:17.840Z,13.30
2023-05-04T20:14:45.838Z,13.20
2023-05-04T20:17:13.842Z,13.10
2023-05-04T20:19:44.147Z,13.20
2023-05-04T20:22:12.274Z,13.20
2023-05-04T20:24:40.279Z,13.20
2023-05-04T20:27:08.429Z,13.20
2023-05-04T20:29:36.701Z,13.20
2023-05-04T20:32:06.414Z,13.40
2023-05-04T20:34:34.690Z,13.50
2023-05-04T20:37:02.697Z,13.50
2023-05-04T20:39:30.772Z,13.60
2023-05-04T20:41:59.386Z,13.50
2023-05-04T20:44:27.479Z,13.40
2023-05-04T20:46:55.517Z,13.20
2023-05-04T20:49:23.607Z,13.20
2023-05-04T20:51:51.717Z,13.20
2023-05-04T20:54:19.749Z,13.20
2023-05-04T20:56:47.757Z,13.00
2023-05-04T20:59:15.888Z,12.90
2023-05-04T21:01:43.926Z,12.90
2023-05-04T21:04:12.340Z,12.90
2023-05-04T21:06:40.441Z,13.00
2023-05-04T21:09:14.015Z,12.90
2023-05-04T21:11:42.067Z,12.80
2023-05-04T21:14:10.082Z,12.60
2023-05-04T21:16:38.108Z,12.40
2023-05-04T21:19:06.197Z,12.30
2023-05-04T21:21:36.044Z,12.20
2023-05-04T21:24:04.097Z,12.20
2023-05-04T21:26:32.633Z,12.00
2023-05-04T21:29:00.668Z,12.00
2023-05-04T21:31:28.718Z,11.80
2023-05-04T21:33:56.870Z,11.70
2023-05-04T21:36:24.879Z,11.70
2023-05-04T21:38:53.074Z,11.70
2023-05-04T21:41:21.223Z,11.70
2023-05-04T21:43:49.361Z,11.70
2023-05-04T21:46:17.640Z,11.60
2023-05-04T21:48:45.799Z,11.50
2023-05-04T21:51:14.013Z,11.40
2023-05-04T21:53:44.049Z,11.30
2023-05-04T21:56:12.495Z,11.30
2023-05-04T21:58:41.779Z,11.30
2023-05-04T22:01:10.304Z,11.40
2023-05-04T22:03:38.295Z,11.50
2023-05-04T22:06:07.739Z,11.50
2023-05-04T22:08:35.910Z,11.50
2023-05-04T22:11:04.195Z,11.50
2023-05-04T22:13:32.267Z,11.40
2023-05-04T22:16:00.292Z,11.60
2023-05-04T22:18:28.416Z,11.50
2023-05-04T22:20:56.493Z,11.40
2023-05-04T22:23:24.556Z,11.20
2023-05-04T22:25:52.756Z,11.00
2023-05-04T22:28:20.730Z,10.80
2023-05-04T22:30:48.864Z,10.70
2023-05-04T22:33:16.954Z,10.60
2023-05-04T22:35:45.148Z,10.60
2023-05-04T22:38:15.461Z,10.60
2023-05-04T22:40:44.895Z,10.60
2023-05-04T22:43:12.909Z,10.50
2023-05-04T22:45:41.985Z,10.40
2023-05-04T22:48:10.007Z,10.50
2023-05-04T22:50:38.037Z,10.70
2023-05-04T22:53:06.094Z,10.70
2023-05-04T22:55:34.307Z,10.60
2023-05-04T22:58:02.412Z,10.50
2023-05-04T23:00:30.514Z,10.40
2023-05-04T23:02:58.612Z,10.30
2023-05-04T23:05:27.064Z,10.20
2023-05-04T23:07:55.086Z,10.30
2023-05-04T23:10:23.226Z,10.30
2023-05-04T23:12:54.145Z,10.30
2023-05-04T23:15:26.641Z,10.20
2023-05-04T23:17:55.936Z,10.30
2023-05-04T23:20:24.028Z,10.30
2023-05-04T23:22:52.308Z,10.30
2023-05-04T23:25:20.353Z,10.30
2023-05-04T23:27:48.455Z,10.30
2023-05-04T23:30:16.967Z,10.30
2023-05-04T23:32:45.161Z,10.10
2023-05-04T23:35:13.173Z,10.10
2023-05-04T23:37:41.204Z,10.10
2023-05-04T23:40:09.844Z,10.10
2023-05-04T23:42:37.995Z,10.00
2023-05-04T23:45:06.274Z,9.90
2023-05-04T23:47:34.353Z,9.80
2023-05-04T23:50:02.510Z,9.90
2023-05-04T23:52:30.802Z,9.90
2023-05-04T23:54:58.789Z,9.80
2023-05-04T23:57:26.810Z,9.80
2023-05-04T23:59:54.910Z,9.80
